Time;durP1;ratioP1;P1;durP2;ratioP2;P2;SDS_P1;SDS_P2;PMS_P1;PMS_P2;Temp;Humidity;BMP_temperature;BMP_pressure;BME280_temperature;BME280_humidity;BME280_pressure;Samples;Min_cycle;Max_cycle;Signal;HPM_P1;HPM_P2
2022/09/12 00:00:42;;;;;;;13.13;9.95;;;;;;;;;;5064072;28;20036;-83
2022/09/12 00:03:08;;;;;;;13.27;9.90;;;;;;;;;;5053162;28;20047;-83
2022/09/12 00:05:33;;;;;;;14.60;10.02;;;;;;;;;;5065727;28;20073;-82
2022/09/12 00:07:59;;;;;;;17.17;9.75;;;;;;;;;;5060680;28;20052;-82
2022/09/12 00:10:25;;;;;;;13.45;9.88;;;;;;;;;;5062622;28;20032;-83
2022/09/12 00:12:50;;;;;;;14.23;10.13;;;;;;;;;;5049100;28;20052;-83
2022/09/12 00:15:16;;;;;;;14.27;10.10;;;;;;;;;;5053165;28;20196;-83
2022/09/12 00:17:42;;;;;;;16.95;10.98;;;;;;;;;;5060005;28;20036;-83
2022/09/12 00:20:09;;;;;;;15.15;11.13;;;;;;;;;;5057434;28;20037;-83
2022/09/12 00:22:35;;;;;;;13.98;10.80;;;;;;;;;;5054638;28;20054;-83
2022/09/12 00:25:01;;;;;;;15.30;11.20;;;;;;;;;;5062877;28;20028;-83
2022/09/12 00:27:27;;;;;;;15.43;10.65;;;;;;;;;;5065523;28;20577;-82
2022/09/12 00:29:53;;;;;;;14.68;11.02;;;;;;;;;;5057082;28;20048;-82
2022/09/12 00:32:18;;;;;;;15.10;11.25;;;;;;;;;;5066656;28;20043;-83
2022/09/12 00:34:44;;;;;;;13.95;10.57;;;;;;;;;;5049158;28;20113;-82
2022/09/12 00:37:09;;;;;;;14.57;11.00;;;;;;;;;;5044203;28;20591;-82
2022/09/12 00:39:35;;;;;;;13.77;10.20;;;;;;;;;;5039764;28;20021;-82
2022/09/12 00:42:00;;;;;;;14.95;11.15;;;;;;;;;;5065492;28;20053;-82
2022/09/12 00:44:25;;;;;;;12.52;10.10;;;;;;;;;;5066042;28;20028;-83
2022/09/12 00:46:58;;;;;;;15.00;10.57;;;;;;;;;;5065460;28;20498;-83
2022/09/12 00:49:27;;;;;;;13.85;9.88;;;;;;;;;;5061675;28;20547;-83
2022/09/12 00:52:24;;;;;;;12.55;8.95;;;;;;;;;;5050069;28;20033;-83
2022/09/12 00:55:01;;;;;;;16.20;11.45;;;;;;;;;;5045953;28;20051;-83
2022/09/12 00:57:33;;;;;;;13.45;9.98;;;;;;;;;;5046591;28;20024;-83
2022/09/12 01:00:15;;;;;;;13.60;10.75;;;;;;;;;;5068425;28;20131;-83
2022/09/12 01:02:44;;;;;;;14.10;10.13;;;;;;;;;;5062039;28;20446;-82
2022/09/12 01:05:11;;;;;;;13.70;10.20;;;;;;;;;;5062164;28;20020;-82
2022/09/12 01:07:38;;;;;;;14.00;10.32;;;;;;;;;;5063246;28;20024;-83
2022/09/12 01:10:05;;;;;;;12.70;9.80;;;;;;;;;;5043663;28;20488;-82
2022/09/12 01:12:30;;;;;;;12.95;9.27;;;;;;;;;;5061629;28;20480;-81
2022/09/12 01:14:56;;;;;;;14.15;10.00;;;;;;;;;;5042186;28;20067;-82
2022/09/12 01:17:28;;;;;;;13.32;9.80;;;;;;;;;;5068494;28;20024;-83
2022/09/12 01:20:41;;;;;;;13.25;9.40;;;;;;;;;;5062499;28;20111;-83
2022/09/12 01:23:22;;;;;;;11.15;8.95;;;;;;;;;;5057374;28;20040;-82
2022/09/12 01:26:29;;;;;;;12.82;9.00;;;;;;;;;;5044865;28;20039;-83
2022/09/12 01:29:26;;;;;;;12.82;9.10;;;;;;;;;;5063295;28;20493;-83
2022/09/12 01:31:57;;;;;;;13.45;9.18;;;;;;;;;;5059318;28;20430;-83
2022/09/12 01:34:27;;;;;;;13.05;8.95;;;;;;;;;;5058501;28;20472;-83
2022/09/12 01:36:56;;;;;;;12.63;9.07;;;;;;;;;;5051242;28;20495;-82
2022/09/12 01:39:34;;;;;;;12.40;9.60;;;;;;;;;;5064063;28;20051;-83
2022/09/12 01:42:14;;;;;;;14.00;9.52;;;;;;;;;;5061846;28;20024;-83
2022/09/12 01:45:06;;;;;;;11.25;8.75;;;;;;;;;;5059754;28;20040;-82
2022/09/12 01:47:40;;;;;;;13.27;9.90;;;;;;;;;;5051910;28;20029;-83
2022/09/12 01:50:11;;;;;;;11.98;9.05;;;;;;;;;;5061559;28;20337;-82
2022/09/12 01:52:57;;;;;;;13.25;9.50;;;;;;;;;;5061965;28;20500;-82
2022/09/12 01:55:31;;;;;;;13.95;9.43;;;;;;;;;;5048122;28;20074;-83
2022/09/12 01:58:03;;;;;;;12.00;9.30;;;;;;;;;;5064135;28;20033;-83
2022/09/12 02:00:33;;;;;;;12.20;9.63;;;;;;;;;;5044959;28;20492;-83
2022/09/12 02:03:09;;;;;;;14.82;9.88;;;;;;;;;;5062472;28;20031;-83
2022/09/12 02:05:49;;;;;;;12.50;9.52;;;;;;;;;;5060666;28;20043;-83
2022/09/12 02:08:28;;;;;;;12.32;9.70;;;;;;;;;;5060875;28;20487;-83
2022/09/12 02:10:58;;;;;;;11.60;8.95;;;;;;;;;;5065663;28;20020;-83
2022/09/12 02:13:35;;;;;;;11.70;9.18;;;;;;;;;;5067460;28;20029;-83
2022/09/12 02:16:06;;;;;;;12.48;9.60;;;;;;;;;;5061963;28;20461;-83
2022/09/12 02:18:35;;;;;;;12.25;9.07;;;;;;;;;;5057175;28;20427;-83
2022/09/12 02:21:04;;;;;;;11.57;9.15;;;;;;;;;;5063699;28;20514;-83
2022/09/12 02:23:31;;;;;;;12.50;9.60;;;;;;;;;;5045627;28;20036;-81
2022/09/12 02:26:05;;;;;;;11.77;9.02;;;;;;;;;;5045843;28;20040;-81
2022/09/12 02:28:34;;;;;;;10.95;8.50;;;;;;;;;;5067025;28;20028;-83
2022/09/12 02:31:24;;;;;;;11.05;8.85;;;;;;;;;;5047120;28;20036;-81
2022/09/12 02:33:52;;;;;;;13.07;9.15;;;;;;;;;;5039818;28;20181;-83
2022/09/12 02:36:38;;;;;;;11.75;9.20;;;;;;;;;;5058529;28;20020;-83
2022/09/12 02:39:04;;;;;;;12.13;9.40;;;;;;;;;;5067122;28;20403;-83
2022/09/12 02:41:29;;;;;;;12.68;9.57;;;;;;;;;;5052776;28;20036;-83
2022/09/12 02:43:55;;;;;;;13.98;9.60;;;;;;;;;;5067790;28;20116;-82
2022/09/12 02:46:41;;;;;;;12.35;9.02;;;;;;;;;;5049865;28;20032;-83
2022/09/12 02:49:07;;;;;;;11.93;9.50;;;;;;;;;;5047701;28;20107;-82
2022/09/12 02:51:33;;;;;;;12.65;9.48;;;;;;;;;;5045952;28;20119;-82
2022/09/12 02:53:59;;;;;;;13.70;9.10;;;;;;;;;;5051330;28;20040;-83
2022/09/12 02:56:29;;;;;;;12.25;9.55;;;;;;;;;;5052598;28;20028;-83
2022/09/12 02:59:00;;;;;;;12.88;9.60;;;;;;;;;;5069021;28;20024;-82
2022/09/12 03:01:55;;;;;;;13.35;9.90;;;;;;;;;;5063954;28;20104;-83
2022/09/12 03:04:38;;;;;;;14.52;10.73;;;;;;;;;;5033569;28;20036;-82
2022/09/12 03:07:25;;;;;;;;;;;;;;;;;;5067189;28;20028;-83
2022/09/12 03:09:57;;;;;;;14.48;10.52;;;;;;;;;;5067707;28;19920;-80
2022/09/12 03:12:44;;;;;;;13.50;9.95;;;;;;;;;;5065994;28;20484;-82
2022/09/12 03:15:26;;;;;;;14.75;10.43;;;;;;;;;;5064182;28;20228;-81
2022/09/12 03:18:05;;;;;;;14.98;10.68;;;;;;;;;;5063736;28;20036;-83
2022/09/12 03:20:45;;;;;;;14.50;10.55;;;;;;;;;;5076603;28;20377;-83
2022/09/12 03:23:27;;;;;;;15.48;11.10;;;;;;;;;;5071334;28;20032;-81
2022/09/12 03:25:58;;;;;;;15.70;10.75;;;;;;;;;;5064281;28;20059;-83
2022/09/12 03:28:24;;;;;;;16.75;11.70;;;;;;;;;;5049407;28;20040;-83
2022/09/12 03:30:52;;;;;;;17.33;11.65;;;;;;;;;;5067762;28;20211;-81
2022/09/12 03:33:20;;;;;;;16.92;11.48;;;;;;;;;;5066893;28;20024;-83
2022/09/12 03:35:47;;;;;;;16.23;11.98;;;;;;;;;;5048256;28;20036;-83
2022/09/12 03:38:12;;;;;;;17.35;12.73;;;;;;;;;;5059051;28;20017;-81
2022/09/12 03:40:38;;;;;;;19.15;13.30;;;;;;;;;;5064646;28;20086;-83
2022/09/12 03:43:05;;;;;;;19.35;12.68;;;;;;;;;;5048824;28;20391;-83
2022/09/12 03:45:30;;;;;;;19.00;13.65;;;;;;;;;;5065618;28;20031;-83
2022/09/12 03:47:57;;;;;;;19.95;12.93;;;;;;;;;;5068516;28;20025;-82
2022/09/12 03:50:22;;;;;;;21.65;13.85;;;;;;;;;;5063651;28;20463;-83
2022/09/12 03:52:48;;;;;;;19.75;13.80;;;;;;;;;;5047687;28;20125;-83
2022/09/12 03:55:13;;;;;;;21.25;13.65;;;;;;;;;;5061186;28;20036;-83
2022/09/12 03:57:39;;;;;;;22.35;13.30;;;;;;;;;;5065043;28;20032;-83
2022/09/12 04:00:07;;;;;;;21.00;13.90;;;;;;;;;;5067333;28;20037;-81
2022/09/12 04:02:32;;;;;;;23.10;14.90;;;;;;;;;;5068827;28;20020;-83
2022/09/12 04:04:58;;;;;;;20.98;13.68;;;;;;;;;;5060655;28;20032;-82
2022/09/12 04:07:23;;;;;;;20.92;13.90;;;;;;;;;;5062905;28;20055;-83
2022/09/12 04:09:49;;;;;;;18.80;13.18;;;;;;;;;;5046141;28;20032;-83
2022/09/12 04:12:14;;;;;;;20.58;13.38;;;;;;;;;;5066656;28;20087;-81
2022/09/12 04:14:40;;;;;;;19.25;13.23;;;;;;;;;;5045840;28;20028;-83
2022/09/12 04:17:05;;;;;;;21.02;13.95;;;;;;;;;;5061346;28;20029;-83
2022/09/12 04:19:31;;;;;;;21.77;13.95;;;;;;;;;;5065389;28;20471;-83
2022/09/12 04:21:56;;;;;;;22.02;14.38;;;;;;;;;;5059824;28;20382;-83
2022/09/12 04:24:22;;;;;;;23.50;14.57;;;;;;;;;;5069844;28;20028;-83
2022/09/12 04:26:47;;;;;;;24.35;15.18;;;;;;;;;;5066521;28;20024;-83
2022/09/12 04:29:13;;;;;;;24.27;14.98;;;;;;;;;;5062697;28;20032;-83
2022/09/12 04:31:39;;;;;;;22.27;14.68;;;;;;;;;;5064827;28;20500;-83
2022/09/12 04:34:05;;;;;;;23.95;14.60;;;;;;;;;;5035214;28;20566;-83
2022/09/12 04:36:33;;;;;;;22.27;14.60;;;;;;;;;;5045513;28;20029;-83
2022/09/12 04:39:00;;;;;;;25.17;14.60;;;;;;;;;;5066916;28;20388;-82
2022/09/12 04:41:32;;;;;;;23.17;15.13;;;;;;;;;;5065742;28;20483;-83
2022/09/12 04:44:03;;;;;;;27.65;15.13;;;;;;;;;;5058883;28;20120;-83
2022/09/12 04:46:32;;;;;;;22.65;14.63;;;;;;;;;;5056622;28;20024;-83
2022/09/12 04:48:57;;;;;;;22.48;14.70;;;;;;;;;;5060476;28;20036;-83
2022/09/12 04:51:26;;;;;;;22.35;14.20;;;;;;;;;;5065423;28;20020;-83
2022/09/12 04:53:54;;;;;;;24.55;14.98;;;;;;;;;;5049258;28;20540;-83
2022/09/12 04:56:20;;;;;;;23.40;15.07;;;;;;;;;;5063905;28;20087;-82
2022/09/12 04:58:46;;;;;;;25.10;15.48;;;;;;;;;;5045628;28;20463;-82
2022/09/12 05:01:14;;;;;;;24.67;14.25;;;;;;;;;;5064981;28;20107;-82
2022/09/12 05:03:42;;;;;;;24.70;14.95;;;;;;;;;;5068328;28;20094;-83
2022/09/12 05:06:10;;;;;;;22.17;14.75;;;;;;;;;;5047166;28;20167;-83
2022/09/12 05:08:36;;;;;;;22.75;14.93;;;;;;;;;;5045452;28;20476;-83
2022/09/12 05:11:07;;;;;;;22.80;14.63;;;;;;;;;;5060291;28;20039;-82
2022/09/12 05:13:33;;;;;;;21.75;14.07;;;;;;;;;;5058111;28;20020;-83
2022/09/12 05:16:01;;;;;;;23.05;14.25;;;;;;;;;;5041834;28;20024;-82
2022/09/12 05:18:27;;;;;;;25.55;15.43;;;;;;;;;;5050178;28;20025;-81
2022/09/12 05:20:53;;;;;;;23.05;14.50;;;;;;;;;;5059725;28;20032;-82
2022/09/12 05:23:19;;;;;;;22.02;14.52;;;;;;;;;;5048890;28;20431;-82
2022/09/12 05:25:51;;;;;;;21.60;13.80;;;;;;;;;;5059704;28;20020;-83
2022/09/12 05:28:18;;;;;;;23.50;14.27;;;;;;;;;;5045059;28;20116;-82
2022/09/12 05:30:43;;;;;;;24.20;14.68;;;;;;;;;;5058512;28;20031;-81
2022/09/12 05:33:09;;;;;;;23.17;14.70;;;;;;;;;;5052709;28;20373;-82
2022/09/12 05:35:36;;;;;;;22.00;13.43;;;;;;;;;;5043277;28;20024;-83
2022/09/12 05:38:02;;;;;;;23.92;13.57;;;;;;;;;;5060717;28;20064;-83
2022/09/12 05:40:27;;;;;;;25.30;14.45;;;;;;;;;;5038769;28;20028;-82
2022/09/12 05:42:53;;;;;;;22.33;13.18;;;;;;;;;;5061749;28;20395;-82
2022/09/12 05:45:20;;;;;;;20.67;13.40;;;;;;;;;;5062275;28;20024;-81
2022/09/12 05:47:45;;;;;;;23.92;14.02;;;;;;;;;;5062995;28;20024;-82
2022/09/12 05:50:11;;;;;;;21.27;13.50;;;;;;;;;;5064789;28;20122;-82
2022/09/12 05:52:36;;;;;;;19.25;13.23;;;;;;;;;;5052302;28;20051;-82
2022/09/12 05:55:03;;;;;;;20.55;12.90;;;;;;;;;;5069677;28;20364;-82
2022/09/12 05:57:28;;;;;;;20.48;13.20;;;;;;;;;;5064366;28;20043;-83
2022/09/12 05:59:54;;;;;;;20.77;13.43;;;;;;;;;;5065857;28;20028;-83
2022/09/12 06:02:19;;;;;;;19.48;13.13;;;;;;;;;;5045861;28;20463;-82
2022/09/12 06:04:45;;;;;;;21.25;12.93;;;;;;;;;;5058421;28;20013;-83
2022/09/12 06:07:10;;;;;;;19.27;12.63;;;;;;;;;;5065125;28;20074;-82
2022/09/12 06:09:36;;;;;;;21.42;12.95;;;;;;;;;;5062803;28;20116;-82
2022/09/12 06:12:02;;;;;;;20.92;13.15;;;;;;;;;;5062691;28;20125;-83
2022/09/12 06:14:27;;;;;;;21.70;13.10;;;;;;;;;;5046391;28;20037;-82
2022/09/12 06:16:53;;;;;;;21.80;13.48;;;;;;;;;;5046656;28;20033;-82
2022/09/12 06:19:21;;;;;;;22.85;13.32;;;;;;;;;;5066377;28;20511;-82
2022/09/12 06:21:48;;;;;;;24.85;14.00;;;;;;;;;;5066759;28;20113;-83
2022/09/12 06:24:14;;;;;;;21.90;13.68;;;;;;;;;;5046721;28;20020;-83
2022/09/12 06:26:40;;;;;;;20.52;12.80;;;;;;;;;;5067337;28;20033;-83
2022/09/12 06:29:06;;;;;;;19.50;13.20;;;;;;;;;;5062426;28;20024;-82
2022/09/12 06:31:36;;;;;;;20.20;13.30;;;;;;;;;;5054963;28;20484;-83
2022/09/12 06:34:07;;;;;;;19.33;13.02;;;;;;;;;;5058344;28;20488;-83
2022/09/12 06:36:39;;;;;;;19.63;12.82;;;;;;;;;;5046755;28;20504;-81
2022/09/12 06:39:07;;;;;;;22.88;13.80;;;;;;;;;;5064527;28;20056;-81
2022/09/12 06:41:32;;;;;;;23.25;13.88;;;;;;;;;;5062566;28;20860;-82
2022/09/12 06:43:59;;;;;;;21.42;13.60;;;;;;;;;;5042808;28;20112;-82
2022/09/12 06:46:24;;;;;;;20.15;13.10;;;;;;;;;;5065784;28;20039;-82
2022/09/12 06:48:50;;;;;;;20.08;12.88;;;;;;;;;;5058731;28;20432;-82
2022/09/12 06:51:18;;;;;;;20.25;13.05;;;;;;;;;;5069034;28;20538;-82
2022/09/12 06:53:45;;;;;;;23.38;14.45;;;;;;;;;;5069546;28;20484;-82
2022/09/12 06:56:14;;;;;;;21.05;13.80;;;;;;;;;;5064968;28;20396;-82
2022/09/12 06:58:41;;;;;;;22.70;14.20;;;;;;;;;;5063361;28;20028;-83
2022/09/12 07:01:13;;;;;;;24.42;14.90;;;;;;;;;;5062785;28;20101;-82
2022/09/12 07:03:39;;;;;;;21.40;14.48;;;;;;;;;;5051015;28;20082;-82
2022/09/12 07:06:09;;;;;;;20.65;13.98;;;;;;;;;;5067062;28;20024;-82
2022/09/12 07:08:36;;;;;;;23.08;15.60;;;;;;;;;;5065737;28;20047;-82
2022/09/12 07:11:16;;;;;;;21.63;14.73;;;;;;;;;;5069582;28;20111;-81
2022/09/12 07:13:44;;;;;;;20.20;13.20;;;;;;;;;;5063675;28;20484;-82
2022/09/12 07:16:12;;;;;;;22.60;14.50;;;;;;;;;;5066508;28;20106;-82
2022/09/12 07:18:38;;;;;;;21.85;14.32;;;;;;;;;;5069046;28;20024;-82
2022/09/12 07:21:06;;;;;;;19.42;13.73;;;;;;;;;;5069094;28;20032;-82
2022/09/12 07:23:32;;;;;;;21.48;14.55;;;;;;;;;;5064551;28;20082;-83
2022/09/12 07:25:59;;;;;;;20.75;14.27;;;;;;;;;;5061407;28;20067;-81
2022/09/12 07:28:30;;;;;;;20.45;14.30;;;;;;;;;;5078180;28;20124;-82
2022/09/12 07:30:56;;;;;;;20.67;14.50;;;;;;;;;;5052460;28;20033;-82
2022/09/12 07:33:25;;;;;;;21.15;13.45;;;;;;;;;;5072047;28;21659;-81
2022/09/12 07:35:53;;;;;;;20.75;13.00;;;;;;;;;;5070870;28;20099;-82
2022/09/12 07:38:21;;;;;;;21.05;15.18;;;;;;;;;;5053119;28;20020;-82
2022/09/12 07:40:46;;;;;;;19.30;14.18;;;;;;;;;;5072724;28;20082;-82
2022/09/12 07:43:12;;;;;;;22.17;15.00;;;;;;;;;;5074328;28;20036;-81
2022/09/12 07:45:40;;;;;;;23.00;14.90;;;;;;;;;;5051008;28;20051;-81
2022/09/12 07:48:06;;;;;;;20.67;15.35;;;;;;;;;;5066866;28;20480;-82
2022/09/12 07:50:32;;;;;;;20.70;13.80;;;;;;;;;;5046786;28;20021;-82
2022/09/12 07:52:57;;;;;;;21.02;14.90;;;;;;;;;;5053660;28;20503;-82
2022/09/12 07:55:23;;;;;;;21.58;13.60;;;;;;;;;;5052303;28;20024;-82
2022/09/12 07:57:49;;;;;;;21.83;14.73;;;;;;;;;;5081714;28;20027;-82
2022/09/12 08:00:15;;;;;;;19.48;13.68;;;;;;;;;;5069126;28;20468;-82
2022/09/12 08:02:40;;;;;;;20.40;15.25;;;;;;;;;;5072855;28;20036;-83
2022/09/12 08:05:06;;;;;;;20.25;15.05;;;;;;;;;;5070285;28;20029;-82
2022/09/12 08:07:32;;;;;;;19.90;13.77;;;;;;;;;;5060702;28;20020;-81
2022/09/12 08:09:59;;;;;;;20.50;14.80;;;;;;;;;;5069294;28;20124;-82
2022/09/12 08:12:26;;;;;;;20.95;14.30;;;;;;;;;;5072524;28;20112;-82
2022/09/12 08:14:51;;;;;;;19.33;14.13;;;;;;;;;;5070893;28;20136;-82
2022/09/12 08:17:16;;;;;;;21.63;14.65;;;;;;;;;;5077561;28;20123;-83
2022/09/12 08:19:42;;;;;;;17.50;13.73;;;;;;;;;;5069976;28;20021;-82
2022/09/12 08:22:08;;;;;;;17.50;13.43;;;;;;;;;;5050929;28;20059;-82
2022/09/12 08:24:34;;;;;;;19.55;13.35;;;;;;;;;;5042701;28;20522;-82
2022/09/12 08:26:59;;;;;;;18.45;13.52;;;;;;;;;;5052692;28;20108;-82
2022/09/12 08:29:24;;;;;;;17.15;12.85;;;;;;;;;;5071672;28;20024;-82
2022/09/12 08:31:50;;;;;;;17.70;13.13;;;;;;;;;;5065920;28;20055;-82
2022/09/12 08:34:17;;;;;;;19.00;13.15;;;;;;;;;;5067668;28;20127;-82
2022/09/12 08:36:43;;;;;;;18.60;12.65;;;;;;;;;;5068134;28;20020;-82
2022/09/12 08:39:11;;;;;;;17.83;13.45;;;;;;;;;;5054144;28;20028;-82
2022/09/12 08:41:47;;;;;;;18.83;13.27;;;;;;;;;;5070588;28;20025;-82
2022/09/12 08:44:24;;;;;;;17.83;12.65;;;;;;;;;;5064922;28;20040;-82
2022/09/12 08:47:04;;;;;;;15.70;12.30;;;;;;;;;;5067345;28;20051;-82
2022/09/12 08:49:34;;;;;;;17.50;12.80;;;;;;;;;;5072231;28;20032;-82
2022/09/12 08:52:45;;;;;;;17.17;11.77;;;;;;;;;;5064683;28;20025;-81
2022/09/12 08:55:23;;;;;;;16.92;11.68;;;;;;;;;;5064780;28;20503;-81
2022/09/12 08:57:48;;;;;;;17.63;11.95;;;;;;;;;;5067754;28;20408;-81
2022/09/12 09:00:15;;;;;;;16.67;11.80;;;;;;;;;;5066227;28;20037;-84
2022/09/12 09:02:47;;;;;;;16.42;12.40;;;;;;;;;;5073848;28;20028;-85
2022/09/12 09:05:21;;;;;;;15.15;11.98;;;;;;;;;;5049220;28;20044;-84
2022/09/12 09:08:14;;;;;;;14.40;10.30;;;;;;;;;;5062760;28;20029;-84
2022/09/12 09:10:48;;;;;;;15.57;10.65;;;;;;;;;;5062483;28;20045;-85
2022/09/12 09:16:29;;;;;;;13.65;9.90;;;;;;;;;;5069218;28;20108;-84
2022/09/12 09:18:59;;;;;;;15.63;10.60;;;;;;;;;;5072158;28;20035;-84
2022/09/12 09:21:41;;;;;;;13.32;10.70;;;;;;;;;;5067485;28;20021;-84
2022/09/12 09:24:15;;;;;;;12.45;9.85;;;;;;;;;;5068480;28;20036;-84
2022/09/12 09:26:47;;;;;;;11.88;9.48;;;;;;;;;;5065443;28;20032;-84
2022/09/12 09:29:18;;;;;;;11.82;8.80;;;;;;;;;;5060025;28;20547;-83
2022/09/12 09:31:48;;;;;;;13.93;8.80;;;;;;;;;;5064498;28;20036;-84
2022/09/12 09:34:21;;;;;;;14.05;10.35;;;;;;;;;;5064244;28;20033;-84
2022/09/12 09:36:49;;;;;;;16.52;10.65;;;;;;;;;;5076005;28;20035;-85
2022/09/12 09:39:42;;;;;;;13.60;9.77;;;;;;;;;;5066130;28;20025;-84
2022/09/12 09:42:13;;;;;;;;;;;;;;;;;;5068453;28;20468;-83
2022/09/12 09:44:39;;;;;;;12.75;9.13;;;;;;;;;;5057411;28;19916;-84
2022/09/12 09:47:04;;;;;;;11.43;9.02;;;;;;;;;;5069069;28;20025;-84
2022/09/12 09:49:33;;;;;;;12.35;8.82;;;;;;;;;;5066294;28;20023;-84
2022/09/12 09:52:02;;;;;;;10.45;8.02;;;;;;;;;;5052207;28;20502;-84
2022/09/12 09:54:54;;;;;;;11.00;9.05;;;;;;;;;;5060365;28;20024;-84
2022/09/12 09:57:34;;;;;;;10.68;7.60;;;;;;;;;;5068559;28;20035;-84
2022/09/12 10:00:20;;;;;;;11.30;7.82;;;;;;;;;;5049431;28;20021;-84
2022/09/12 10:03:12;;;;;;;9.80;6.60;;;;;;;;;;5061360;28;20023;-84
2022/09/12 10:05:47;;;;;;;8.50;6.43;;;;;;;;;;5065778;28;20515;-84
2022/09/12 10:08:23;;;;;;;11.40;7.25;;;;;;;;;;5071152;28;20757;-84
2022/09/12 10:10:53;;;;;;;9.50;6.55;;;;;;;;;;5062200;28;20387;-81
2022/09/12 10:13:40;;;;;;;7.70;5.25;;;;;;;;;;5057963;28;20103;-83
2022/09/12 10:16:24;;;;;;;9.93;5.30;;;;;;;;;;5047605;28;20465;-84
2022/09/12 10:18:52;;;;;;;7.72;5.82;;;;;;;;;;5069038;28;20050;-83
2022/09/12 10:21:38;;;;;;;8.52;6.28;;;;;;;;;;5065746;28;20099;-84
2022/09/12 10:24:22;;;;;;;8.70;6.35;;;;;;;;;;5050258;28;20016;-84
2022/09/12 10:27:14;;;;;;;7.63;5.20;;;;;;;;;;5068692;28;20115;-83
2022/09/12 10:30:05;;;;;;;7.50;5.28;;;;;;;;;;5059506;28;20048;-84
2022/09/12 10:32:39;;;;;;;7.97;4.85;;;;;;;;;;5069685;28;20028;-84
2022/09/12 10:35:29;;;;;;;7.47;5.20;;;;;;;;;;5050136;28;20488;-84
2022/09/12 10:38:05;;;;;;;6.82;4.75;;;;;;;;;;5044212;28;20129;-84
2022/09/12 10:40:37;;;;;;;7.50;4.95;;;;;;;;;;5046681;28;20033;-83
2022/09/12 10:43:15;;;;;;;7.82;5.88;;;;;;;;;;5066821;28;20434;-84
2022/09/12 10:45:41;;;;;;;6.60;5.00;;;;;;;;;;5053293;28;20079;-84
2022/09/12 10:48:28;;;;;;;7.57;5.15;;;;;;;;;;5059634;28;20448;-84
2022/09/12 10:50:53;;;;;;;7.22;5.03;;;;;;;;;;5048724;28;21735;-83
2022/09/12 10:53:27;;;;;;;7.30;4.60;;;;;;;;;;5051568;28;20088;-83
2022/09/12 10:55:58;;;;;;;5.75;4.22;;;;;;;;;;5048331;28;20020;-83
2022/09/12 10:58:35;;;;;;;5.63;4.05;;;;;;;;;;5065150;28;20548;-84
2022/09/12 11:01:12;;;;;;;5.88;4.10;;;;;;;;;;5053751;28;20029;-83
2022/09/12 11:04:05;;;;;;;7.55;4.88;;;;;;;;;;5066499;28;20112;-84
2022/09/12 11:06:52;;;;;;;5.85;4.22;;;;;;;;;;5077834;28;20118;-83
2022/09/12 11:09:34;;;;;;;5.38;3.85;;;;;;;;;;5061238;28;20037;-84
2022/09/12 11:12:19;;;;;;;5.80;3.90;;;;;;;;;;5051962;28;20025;-84
2022/09/12 11:14:56;;;;;;;6.47;4.45;;;;;;;;;;5067807;28;20021;-84
2022/09/12 11:17:46;;;;;;;7.45;4.10;;;;;;;;;;5059328;28;20544;-84
2022/09/12 11:20:27;;;;;;;6.88;4.32;;;;;;;;;;5062847;28;20471;-83
2022/09/12 11:23:07;;;;;;;8.38;5.20;;;;;;;;;;5071177;28;20085;-84
2022/09/12 11:26:14;;;;;;;5.43;4.07;;;;;;;;;;5077223;28;20020;-82
2022/09/12 11:28:55;;;;;;;7.32;5.68;;;;;;;;;;5059956;28;20578;-83
2022/09/12 11:31:42;;;;;;;8.45;5.13;;;;;;;;;;5072460;28;20032;-83
2022/09/12 11:34:10;;;;;;;7.75;5.18;;;;;;;;;;5064138;28;20527;-83
2022/09/12 11:37:02;;;;;;;7.30;5.18;;;;;;;;;;5048771;28;20087;-83
2022/09/12 11:39:39;;;;;;;6.47;4.97;;;;;;;;;;5074701;28;20021;-83
2022/09/12 11:42:10;;;;;;;7.10;4.45;;;;;;;;;;5047698;28;20459;-83
2022/09/12 11:44:41;;;;;;;6.45;4.47;;;;;;;;;;5046810;28;20116;-83
2022/09/12 11:47:11;;;;;;;6.47;4.32;;;;;;;;;;5042869;28;20384;-83
2022/09/12 11:49:47;;;;;;;8.07;5.60;;;;;;;;;;5052724;28;20021;-83
2022/09/12 11:52:15;;;;;;;5.18;3.92;;;;;;;;;;5076547;28;20510;-82
2022/09/12 11:54:58;;;;;;;4.20;2.50;;;;;;;;;;5063214;28;20548;-82
2022/09/12 11:57:32;;;;;;;4.40;2.75;;;;;;;;;;5065062;28;20029;-83
2022/09/12 12:00:19;;;;;;;4.10;2.80;;;;;;;;;;5063492;28;20024;-83
2022/09/12 12:03:07;;;;;;;4.50;3.03;;;;;;;;;;5071285;28;20036;-83
2022/09/12 12:05:44;;;;;;;5.13;2.80;;;;;;;;;;5046710;28;20029;-82
2022/09/12 12:08:11;;;;;;;4.47;2.63;;;;;;;;;;5065849;28;20102;-83
2022/09/12 12:10:47;;;;;;;3.97;2.50;;;;;;;;;;5047204;28;20097;-82
2022/09/12 12:13:27;;;;;;;3.47;2.50;;;;;;;;;;5067548;28;20024;-82
2022/09/12 12:16:06;;;;;;;4.82;3.50;;;;;;;;;;5069133;28;20111;-81
2022/09/12 12:18:35;;;;;;;4.63;3.08;;;;;;;;;;5071226;28;20048;-83
2022/09/12 12:21:25;;;;;;;4.55;2.92;;;;;;;;;;5069387;28;20114;-83
2022/09/12 12:24:17;;;;;;;4.22;2.80;;;;;;;;;;5069255;28;20432;-83
2022/09/12 12:26:52;;;;;;;4.80;3.25;;;;;;;;;;5062994;28;20035;-82
2022/09/12 12:29:18;;;;;;;4.28;3.00;;;;;;;;;;5071846;28;20024;-83
2022/09/12 12:31:59;;;;;;;3.70;2.72;;;;;;;;;;5053043;28;20260;-83
2022/09/12 12:34:28;;;;;;;4.40;3.08;;;;;;;;;;5067647;28;20473;-83
2022/09/12 12:36:54;;;;;;;4.50;2.50;;;;;;;;;;5057132;28;20554;-83
2022/09/12 12:39:31;;;;;;;4.13;2.90;;;;;;;;;;5063309;28;20044;-83
2022/09/12 12:42:01;;;;;;;3.95;2.72;;;;;;;;;;5051405;28;20476;-83
2022/09/12 12:44:46;;;;;;;4.15;2.58;;;;;;;;;;5049003;28;20028;-83
2022/09/12 12:47:28;;;;;;;2.95;2.28;;;;;;;;;;5051651;28;20604;-81
2022/09/12 12:50:14;;;;;;;4.55;2.35;;;;;;;;;;5064775;28;20032;-83
2022/09/12 12:53:03;;;;;;;2.97;2.25;;;;;;;;;;5044401;28;20072;-84
2022/09/12 12:55:44;;;;;;;3.03;2.38;;;;;;;;;;5072853;28;20028;-84
2022/09/12 12:58:30;;;;;;;4.50;2.10;;;;;;;;;;5071793;28;20102;-83
2022/09/12 13:01:18;;;;;;;4.78;2.72;;;;;;;;;;5051836;28;20484;-83
2022/09/12 13:04:05;;;;;;;4.07;2.53;;;;;;;;;;5059307;28;20051;-83
2022/09/12 13:06:38;;;;;;;4.10;2.40;;;;;;;;;;5028890;28;20040;-83
2022/09/12 13:09:05;;;;;;;;;;;;;;;;;;5064854;28;20040;-82
2022/09/12 13:11:35;;;;;;;4.05;2.72;;;;;;;;;;5068208;28;19991;-84
2022/09/12 13:14:03;;;;;;;7.07;3.30;;;;;;;;;;5063842;28;20484;-84
2022/09/12 13:16:36;;;;;;;3.83;2.55;;;;;;;;;;5069848;28;20024;-83
2022/09/12 13:19:18;;;;;;;;;;;;;;;;;;5068705;28;20028;-84
2022/09/12 13:22:08;;;;;;;3.63;2.75;;;;;;;;;;5068842;28;19912;-84
2022/09/12 13:24:41;;;;;;;4.00;2.40;;;;;;;;;;5064187;28;20028;-84
2022/09/12 13:27:17;;;;;;;3.75;2.80;;;;;;;;;;5050328;28;20127;-84
2022/09/12 13:29:43;;;;;;;4.68;2.58;;;;;;;;;;5041985;28;20024;-84
2022/09/12 13:32:08;;;;;;;4.03;2.53;;;;;;;;;;5064291;28;20077;-83
2022/09/12 13:34:40;;;;;;;3.60;2.50;;;;;;;;;;5064466;28;20025;-84
2022/09/12 13:37:34;;;;;;;4.60;2.78;;;;;;;;;;5046378;28;20491;-83
2022/09/12 13:40:17;;;;;;;;;;;;;;;;;;5069774;28;20032;-84
2022/09/12 13:42:52;;;;;;;3.70;2.55;;;;;;;;;;5043486;28;19995;-84
2022/09/12 13:45:28;;;;;;;5.55;2.55;;;;;;;;;;5047083;28;20079;-84
2022/09/12 13:48:00;;;;;;;3.67;2.30;;;;;;;;;;5059295;28;20483;-84
2022/09/12 13:50:32;;;;;;;3.92;2.50;;;;;;;;;;5072605;28;20524;-84
2022/09/12 13:53:03;;;;;;;3.25;2.00;;;;;;;;;;5050136;28;20123;-84
2022/09/12 13:55:36;;;;;;;4.95;2.60;;;;;;;;;;5057891;28;20036;-84
2022/09/12 13:58:04;;;;;;;3.25;2.30;;;;;;;;;;5075349;28;20509;-84
2022/09/12 14:00:32;;;;;;;3.45;2.30;;;;;;;;;;5066082;28;20031;-84
2022/09/12 14:05:53;;;;;;;4.03;2.22;;;;;;;;;;5056673;28;20139;-84
2022/09/12 14:08:21;;;;;;;3.00;2.28;;;;;;;;;;5075095;28;20127;-84
2022/09/12 14:10:49;;;;;;;3.70;2.30;;;;;;;;;;5068706;28;20082;-85
2022/09/12 14:13:21;;;;;;;4.20;2.70;;;;;;;;;;5057246;28;20112;-84
2022/09/12 14:15:51;;;;;;;3.90;2.70;;;;;;;;;;5060259;28;20036;-84
2022/09/12 14:18:25;;;;;;;3.58;2.33;;;;;;;;;;5050016;28;20542;-83
2022/09/12 14:20:52;;;;;;;5.38;2.80;;;;;;;;;;5068828;28;20040;-84
2022/09/12 14:23:29;;;;;;;4.03;2.42;;;;;;;;;;5052546;28;20407;-85
2022/09/12 14:25:57;;;;;;;4.05;2.78;;;;;;;;;;5059667;28;20069;-83
2022/09/12 14:28:27;;;;;;;4.45;2.63;;;;;;;;;;5058196;28;20033;-83
2022/09/12 14:31:04;;;;;;;4.07;2.47;;;;;;;;;;5066006;28;20044;-84
2022/09/12 14:33:32;;;;;;;4.35;2.60;;;;;;;;;;5045743;28;20471;-83
2022/09/12 14:36:28;;;;;;;3.70;2.63;;;;;;;;;;5066974;28;20464;-82
2022/09/12 14:38:58;;;;;;;4.43;2.58;;;;;;;;;;5068213;28;20385;-83
2022/09/12 14:41:39;;;;;;;3.60;2.50;;;;;;;;;;5058454;28;20025;-83
2022/09/12 14:44:13;;;;;;;3.78;2.42;;;;;;;;;;5057293;28;20033;-83
2022/09/12 14:46:41;;;;;;;4.68;2.50;;;;;;;;;;5062555;28;20025;-83
2022/09/12 14:49:09;;;;;;;3.28;2.28;;;;;;;;;;5069544;28;20071;-83
2022/09/12 14:51:44;;;;;;;3.88;2.47;;;;;;;;;;5053656;28;20419;-83
2022/09/12 14:54:28;;;;;;;4.50;2.60;;;;;;;;;;5072518;28;20027;-83
2022/09/12 14:57:03;;;;;;;4.50;2.80;;;;;;;;;;5063421;28;20036;-83
2022/09/12 14:59:34;;;;;;;3.83;2.40;;;;;;;;;;5041303;28;21274;-84
2022/09/12 15:02:20;;;;;;;5.15;2.40;;;;;;;;;;5066480;28;20055;-84
2022/09/12 15:04:51;;;;;;;4.30;2.28;;;;;;;;;;5047646;28;20198;-83